Time;durP1;ratioP1;P1;durP2;ratioP2;P2;SDS_P1;SDS_P2;PMS_P1;PMS_P2;Temp;Humidity;BMP_temperature;BMP_pressure;BME280_temperature;BME280_humidity;BME280_pressure;Samples;Min_cycle;Max_cycle;Signal;HPM_P1;HPM_P2
2022/12/09 00:00:23;;;;;;;35.80;20.27;;;;;;;2.14;85.91;100581.09;5082741;28;20032;-84
2022/12/09 00:02:48;;;;;;;38.08;21.50;;;;;;;2.14;85.64;100586.31;5080541;28;20031;-84
2022/12/09 00:05:14;;;;;;;36.53;21.35;;;;;;;2.13;85.89;100587.22;5107765;28;20027;-85
2022/12/09 00:07:39;;;;;;;34.10;19.83;;;;;;;2.14;86.21;100596.75;5094243;28;20371;-85
2022/12/09 00:10:05;;;;;;;35.35;20.45;;;;;;;2.10;86.00;100579.41;5083770;28;20024;-85
2022/12/09 00:12:30;;;;;;;32.75;19.60;;;;;;;2.18;86.05;100590.63;5102417;28;20027;-84
2022/12/09 00:14:56;;;;;;;33.17;20.83;;;;;;;2.15;85.95;100578.50;5089932;28;20055;-85
2022/12/09 00:17:21;;;;;;;33.70;19.88;;;;;;;2.20;85.87;100579.31;5093700;28;20552;-85
2022/12/09 00:19:46;;;;;;;39.38;21.25;;;;;;;2.25;85.80;100589.69;5098702;28;20031;-85
2022/12/09 00:22:12;;;;;;;32.38;19.23;;;;;;;2.22;85.67;100579.28;5079430;28;20020;-85
2022/12/09 00:24:38;;;;;;;35.78;20.42;;;;;;;2.32;85.70;100580.06;5100243;28;20024;-85
2022/12/09 00:27:03;;;;;;;36.83;21.70;;;;;;;2.31;85.35;100579.19;5099558;28;20019;-85
2022/12/09 00:29:28;;;;;;;37.78;19.13;;;;;;;2.24;85.19;100567.13;5091007;28;20474;-85
2022/12/09 00:31:54;;;;;;;38.55;21.05;;;;;;;2.27;85.50;100580.09;5076818;28;20024;-85
2022/12/09 00:34:19;;;;;;;32.88;20.63;;;;;;;2.10;85.68;100555.94;5106345;28;20095;-84
2022/12/09 00:36:44;;;;;;;36.35;18.95;;;;;;;2.26;85.55;100583.59;5103169;28;20436;-85
2022/12/09 00:39:11;;;;;;;34.58;21.20;;;;;;;2.27;85.53;100587.94;5099682;28;20023;-85
2022/12/09 00:41:36;;;;;;;35.45;20.63;;;;;;;2.22;85.33;100580.16;5086206;28;20061;-84
2022/12/09 00:44:02;;;;;;;39.15;21.95;;;;;;;2.20;85.82;100571.50;5093530;28;20059;-85
2022/12/09 00:46:27;;;;;;;37.95;21.25;;;;;;;2.20;85.68;100581.94;5083787;28;20030;-85
2022/12/09 00:48:53;;;;;;;37.10;20.85;;;;;;;2.25;85.87;100587.09;5102958;28;20085;-85
2022/12/09 00:51:20;;;;;;;35.75;22.05;;;;;;;2.27;85.84;100590.53;5099047;28;20031;-85
2022/12/09 00:53:46;;;;;;;37.90;20.27;;;;;;;2.29;85.81;100584.44;5087671;28;20024;-84
2022/12/09 00:56:11;;;;;;;34.97;20.08;;;;;;;2.39;85.58;100593.03;5109392;28;20382;-84
2022/12/09 00:58:37;;;;;;;41.22;21.52;;;;;;;2.42;85.54;100589.50;5078957;28;20028;-85
2022/12/09 01:01:02;;;;;;;39.88;22.38;;;;;;;2.31;85.24;100571.38;5086266;28;20019;-84
2022/12/09 01:03:28;;;;;;;38.25;21.85;;;;;;;2.36;85.29;100585.22;5081300;28;20494;-85
2022/12/09 01:05:54;;;;;;;39.75;21.58;;;;;;;2.36;85.26;100577.41;5078595;28;20067;-84
2022/12/09 01:08:19;;;;;;;45.63;22.40;;;;;;;2.38;85.41;100573.03;5086743;28;20475;-84
2022/12/09 01:10:45;;;;;;;38.63;22.13;;;;;;;2.43;85.38;100586.03;5099077;28;20020;-85
2022/12/09 01:13:15;;;;;;;37.53;21.38;;;;;;;2.43;85.53;100589.50;5103021;28;20081;-85
2022/12/09 01:15:41;;;;;;;40.42;22.17;;;;;;;2.44;85.56;100588.63;5085850;28;20042;-85
2022/12/09 01:18:07;;;;;;;43.60;22.77;;;;;;;2.42;85.67;100579.06;5079039;28;20378;-85
2022/12/09 01:20:33;;;;;;;41.15;22.60;;;;;;;2.41;85.82;100583.44;5081747;28;20038;-85
2022/12/09 01:22:58;;;;;;;41.00;22.40;;;;;;;2.44;85.88;100580.78;5085878;28;20020;-85
2022/12/09 01:25:23;;;;;;;45.70;24.63;;;;;;;2.45;85.59;100587.72;5086969;28;20034;-85
2022/12/09 01:27:49;;;;;;;42.95;23.52;;;;;;;2.47;85.65;100588.59;5106952;28;20088;-84
2022/12/09 01:30:14;;;;;;;44.88;23.90;;;;;;;2.49;85.40;100592.03;5105144;28;20031;-85
2022/12/09 01:32:40;;;;;;;46.08;25.75;;;;;;;2.46;85.39;100597.28;5075323;28;20028;-85
2022/12/09 01:35:06;;;;;;;49.00;25.77;;;;;;;2.49;85.42;100601.63;5102126;28;20501;-85
2022/12/09 01:37:32;;;;;;;44.58;24.38;;;;;;;2.48;85.51;100598.16;5090864;28;20043;-85
2022/12/09 01:39:57;;;;;;;49.88;26.13;;;;;;;2.48;85.51;100590.31;5087892;28;20036;-85
2022/12/09 01:42:25;;;;;;;44.25;23.83;;;;;;;2.52;85.35;100594.63;5085781;28;20031;-85
2022/12/09 01:45:18;;;;;;;49.03;24.10;;;;;;;2.57;85.47;100596.31;5083609;28;20023;-85
2022/12/09 01:47:44;;;;;;;51.10;26.60;;;;;;;2.51;85.41;100595.47;5075505;28;20023;-85
2022/12/09 01:50:09;;;;;;;49.42;25.80;;;;;;;2.49;85.38;100585.97;5074171;28;20059;-84
2022/12/09 01:52:34;;;;;;;47.83;25.75;;;;;;;2.57;85.57;100604.16;5073853;28;20036;-84
2022/12/09 01:55:00;;;;;;;51.55;26.45;;;;;;;2.54;85.51;100602.44;5079372;28;20032;-84
2022/12/09 01:57:25;;;;;;;49.20;26.50;;;;;;;2.54;85.27;100595.47;5092480;28;20023;-84
2022/12/09 01:59:51;;;;;;;50.70;25.60;;;;;;;2.56;85.07;100590.22;5096815;28;20119;-84
2022/12/09 02:02:18;;;;;;;50.33;26.50;;;;;;;2.64;85.35;100604.03;5101684;28;20140;-85
2022/12/09 02:04:47;;;;;;;49.42;25.52;;;;;;;2.66;85.23;100590.97;5084211;28;20073;-84
2022/12/09 02:07:12;;;;;;;52.58;27.00;;;;;;;2.68;84.92;100597.91;5085594;28;20023;-85
2022/12/09 02:09:38;;;;;;;51.00;26.05;;;;;;;2.63;84.56;100583.19;5097292;28;20046;-85
2022/12/09 02:12:25;;;;;;;50.03;26.30;;;;;;;2.69;84.93;100602.25;5098800;28;20036;-84
2022/12/09 02:15:03;;;;;;;51.80;26.35;;;;;;;2.66;84.61;100601.41;5096915;28;20071;-84
2022/12/09 02:17:38;;;;;;;50.88;25.20;;;;;;;2.68;84.94;100604.88;5103892;28;20092;-84
2022/12/09 02:20:12;;;;;;;54.22;26.77;;;;;;;2.65;84.86;100595.31;5109172;28;20106;-84
2022/12/09 02:22:43;;;;;;;51.17;25.95;;;;;;;2.62;85.22;100599.75;5098503;28;20024;-85
2022/12/09 02:25:15;;;;;;;59.95;28.55;;;;;;;2.59;84.79;100602.38;5090972;28;20056;-84
2022/12/09 02:27:40;;;;;;;;;;;;;;;2.70;84.65;100600.50;5090595;28;20043;-85
2022/12/09 02:30:13;;;;;;;53.15;25.48;;;;;;;2.60;85.07;100591.06;5101391;28;19912;-85
2022/12/09 02:33:25;;;;;;;53.08;26.70;;;;;;;2.78;85.05;100596.06;5087235;28;20051;-85
2022/12/09 02:36:04;;;;;;;53.95;26.33;;;;;;;2.80;85.16;100596.91;5075506;28;20032;-85
2022/12/09 02:38:31;;;;;;;56.67;28.00;;;;;;;2.81;84.98;100596.88;5109140;28;20030;-85
2022/12/09 02:41:10;;;;;;;56.45;27.85;;;;;;;2.81;85.13;100590.81;5094105;28;20368;-85
2022/12/09 02:43:42;;;;;;;51.63;25.17;;;;;;;2.77;84.54;100581.28;5089448;28;20526;-84
2022/12/09 02:46:10;;;;;;;59.88;26.67;;;;;;;2.86;84.71;100581.16;5100329;28;20034;-84
2022/12/09 02:48:39;;;;;;;60.83;28.45;;;;;;;2.89;84.82;100580.25;5105281;28;20108;-85
2022/12/09 02:51:13;;;;;;;64.93;29.33;;;;;;;2.90;84.41;100582.00;5090727;28;20054;-85
2022/12/09 02:53:41;;;;;;;63.70;28.35;;;;;;;2.91;84.58;100581.97;5079647;28;20028;-85
2022/12/09 02:56:07;;;;;;;63.35;27.88;;;;;;;2.84;84.50;100563.78;5094909;28;20024;-85
2022/12/09 02:58:33;;;;;;;56.95;27.77;;;;;;;2.91;84.96;100570.66;5083786;28;20038;-85
2022/12/09 03:00:59;;;;;;;69.15;29.23;;;;;;;2.90;84.77;100579.38;5086146;28;20122;-84
2022/12/09 03:03:28;;;;;;;71.28;29.48;;;;;;;2.92;84.98;100586.28;5100960;28;20390;-84
2022/12/09 03:06:12;;;;;;;68.70;29.30;;;;;;;2.94;84.97;100576.72;5110899;28;20494;-85
2022/12/09 03:09:06;;;;;;;69.35;29.00;;;;;;;2.91;84.74;100573.28;5099280;28;20126;-85
2022/12/09 03:11:32;;;;;;;60.38;28.50;;;;;;;2.97;84.99;100581.00;5098405;28;20032;-85
2022/12/09 03:14:10;;;;;;;67.65;27.83;;;;;;;2.95;84.72;100568.00;5083202;28;20035;-85
2022/12/09 03:17:01;;;;;;;65.55;27.98;;;;;;;3.03;84.74;100575.69;5102115;28;20157;-85
2022/12/09 03:19:41;;;;;;;59.65;28.63;;;;;;;3.05;84.81;100573.94;5092238;28;20107;-85
2022/12/09 03:22:11;;;;;;;67.63;29.55;;;;;;;3.01;84.41;100561.81;5073003;28;20016;-85
2022/12/09 03:24:52;;;;;;;71.18;29.40;;;;;;;2.95;83.95;100556.69;5082090;28;20028;-85
2022/12/09 03:27:24;;;;;;;71.22;29.27;;;;;;;2.91;84.52;100562.84;5073939;28;20082;-85
2022/12/09 03:29:51;;;;;;;66.73;29.70;;;;;;;2.88;84.95;100561.09;5102220;28;20132;-85
2022/12/09 03:32:20;;;;;;;62.13;28.85;;;;;;;2.89;84.87;100561.97;5084298;28;20811;-85
2022/12/09 03:34:49;;;;;;;68.80;30.35;;;;;;;2.89;85.04;100564.59;5090788;28;20057;-85
2022/12/09 03:37:17;;;;;;;72.93;30.70;;;;;;;2.85;85.34;100552.47;5075741;28;21368;-85
2022/12/09 03:39:45;;;;;;;74.10;31.15;;;;;;;2.76;85.71;100551.72;5104612;28;20020;-85
2022/12/09 03:42:25;;;;;;;65.75;30.00;;;;;;;2.83;85.46;100555.09;5103282;28;20026;-85
2022/12/09 03:45:01;;;;;;;69.50;29.55;;;;;;;2.82;85.65;100561.19;5092478;28;20160;-85
2022/12/09 03:47:27;;;;;;;70.82;30.65;;;;;;;2.80;85.65;100544.72;5103731;28;20110;-85
2022/12/09 03:49:52;;;;;;;59.13;27.42;;;;;;;2.81;85.58;100549.03;5077566;28;20052;-85
2022/12/09 03:52:36;;;;;;;56.10;27.58;;;;;;;2.83;85.44;100546.41;5077436;28;20027;-84
2022/12/09 03:55:18;;;;;;;55.35;25.83;;;;;;;2.74;85.32;100540.41;5085379;28;20057;-85
2022/12/09 03:57:46;;;;;;;51.25;26.33;;;;;;;2.69;85.39;100543.97;5075576;28;20415;-85
2022/12/09 04:00:12;;;;;;;55.92;27.50;;;;;;;2.62;85.61;100534.50;5080789;28;20566;-85
2022/12/09 04:02:37;;;;;;;57.28;27.33;;;;;;;2.65;85.51;100548.34;5089324;28;20107;-84
2022/12/09 04:05:03;;;;;;;52.13;26.27;;;;;;;2.61;85.57;100537.97;5097902;28;20024;-85
2022/12/09 04:07:28;;;;;;;52.78;27.30;;;;;;;2.66;85.68;100544.00;5078320;28;20031;-85
2022/12/09 04:09:54;;;;;;;51.78;26.42;;;;;;;2.60;85.33;100541.47;5076861;28;20024;-85
2022/12/09 04:12:19;;;;;;;48.67;26.73;;;;;;;2.63;85.40;100554.50;5083871;28;20369;-85
2022/12/09 04:14:44;;;;;;;53.92;26.60;;;;;;;2.59;85.61;100539.75;5100910;28;20032;-85
2022/12/09 04:17:10;;;;;;;51.65;26.58;;;;;;;2.64;85.64;100544.03;5076231;28;20513;-85
2022/12/09 04:19:36;;;;;;;56.55;27.70;;;;;;;2.55;85.71;100525.88;5097813;28;20019;-85
2022/12/09 04:22:01;;;;;;;53.20;25.13;;;;;;;2.63;85.13;100536.22;5101376;28;20091;-85
2022/12/09 04:24:27;;;;;;;55.28;27.90;;;;;;;2.65;85.46;100544.88;5104775;28;20027;-85
2022/12/09 04:26:52;;;;;;;50.30;25.73;;;;;;;2.55;85.35;100537.16;5098578;28;20027;-85
2022/12/09 04:29:18;;;;;;;50.35;26.58;;;;;;;2.72;84.52;100533.50;5094653;28;20023;-85
2022/12/09 04:31:43;;;;;;;49.10;25.58;;;;;;;2.77;84.57;100540.38;5100554;28;20070;-84
2022/12/09 04:34:08;;;;;;;57.13;26.75;;;;;;;2.89;84.66;100546.31;5081645;28;20047;-84
2022/12/09 04:36:33;;;;;;;55.58;27.40;;;;;;;2.81;84.14;100529.00;5090646;28;20066;-84
2022/12/09 04:38:59;;;;;;;52.60;25.65;;;;;;;2.83;84.05;100528.13;5102818;28;20039;-84
2022/12/09 04:41:24;;;;;;;50.70;25.50;;;;;;;2.84;83.90;100533.31;5102793;28;20016;-85
2022/12/09 04:43:49;;;;;;;51.67;24.73;;;;;;;2.80;84.41;100547.31;5106381;28;20027;-84
2022/12/09 04:46:16;;;;;;;56.05;24.48;;;;;;;2.63;84.80;100538.84;5099158;28;20040;-85
2022/12/09 04:48:42;;;;;;;52.92;25.80;;;;;;;2.61;85.10;100536.25;5096185;28;20024;-84
2022/12/09 04:51:09;;;;;;;55.53;28.08;;;;;;;2.66;85.36;100538.78;5057102;28;20487;-84
2022/12/09 04:53:35;;;;;;;53.42;26.52;;;;;;;2.71;85.01;100542.22;5079745;28;20037;-84
2022/12/09 04:56:06;;;;;;;52.70;27.23;;;;;;;2.71;85.00;100534.38;5088783;28;20030;-84
2022/12/09 04:58:31;;;;;;;48.33;25.20;;;;;;;2.78;84.40;100544.72;5073635;28;20017;-84
2022/12/09 05:00:57;;;;;;;53.05;25.73;;;;;;;2.74;84.51;100536.94;5075546;28;20033;-85
2022/12/09 05:03:22;;;;;;;56.45;26.35;;;;;;;2.79;84.67;100546.44;5056364;28;20056;-85
2022/12/09 05:05:48;;;;;;;51.75;26.70;;;;;;;2.78;84.68;100539.47;5087948;28;20367;-85
2022/12/09 05:08:14;;;;;;;49.33;25.13;;;;;;;2.82;84.82;100550.75;5086577;28;20515;-84
2022/12/09 05:10:41;;;;;;;53.00;26.10;;;;;;;2.74;84.52;100536.94;5085430;28;20032;-84
2022/12/09 05:13:06;;;;;;;52.88;27.15;;;;;;;2.72;84.28;100541.31;5073451;28;20064;-84
2022/12/09 05:15:31;;;;;;;54.50;27.40;;;;;;;2.72;84.06;100541.31;5057152;28;20553;-84
2022/12/09 05:17:58;;;;;;;55.53;25.92;;;;;;;2.64;84.22;100545.78;5063953;28;20062;-84
2022/12/09 05:20:27;;;;;;;58.53;27.02;;;;;;;2.64;84.25;100548.38;5082180;28;20027;-85
2022/12/09 05:22:53;;;;;;;49.63;25.05;;;;;;;2.60;84.38;100544.06;5082570;28;20016;-85
2022/12/09 05:25:19;;;;;;;49.03;24.08;;;;;;;2.58;84.54;100538.03;5070762;28;20146;-84
2022/12/09 05:27:44;;;;;;;58.63;28.88;;;;;;;2.56;84.31;100532.81;5085484;28;20079;-84
2022/12/09 05:30:09;;;;;;;53.85;25.20;;;;;;;2.59;83.95;100534.53;5079878;28;20019;-85
2022/12/09 05:32:35;;;;;;;51.58;26.40;;;;;;;2.56;83.85;100532.81;5084268;28;20021;-84
2022/12/09 05:35:00;;;;;;;52.10;26.60;;;;;;;2.55;84.04;100534.56;5083455;28;20028;-84
2022/12/09 05:37:25;;;;;;;54.95;27.25;;;;;;;2.58;84.19;100532.81;5083264;28;20660;-84
2022/12/09 05:39:50;;;;;;;51.55;26.40;;;;;;;2.59;83.87;100532.78;5066746;28;20029;-84
2022/12/09 05:42:16;;;;;;;47.55;24.38;;;;;;;2.61;84.16;100535.34;5081896;28;20433;-84
2022/12/09 05:44:41;;;;;;;49.95;25.55;;;;;;;2.65;84.02;100537.91;5077315;28;20060;-84
2022/12/09 05:47:06;;;;;;;56.92;28.50;;;;;;;2.63;84.38;100544.91;5075235;28;20078;-85
2022/12/09 05:49:32;;;;;;;44.08;24.10;;;;;;;2.64;84.31;100545.78;5086589;28;20499;-84
2022/12/09 05:51:57;;;;;;;55.22;25.95;;;;;;;2.64;83.92;100543.16;5081409;28;20035;-85
2022/12/09 05:54:22;;;;;;;52.58;26.40;;;;;;;2.66;83.80;100539.66;5086788;28;20012;-85
2022/12/09 05:56:47;;;;;;;52.55;26.23;;;;;;;2.65;83.53;100539.66;5098471;28;20056;-85
2022/12/09 05:59:13;;;;;;;53.67;26.67;;;;;;;2.60;83.60;100534.50;5078194;28;20467;-85
2022/12/09 06:01:38;;;;;;;52.45;26.20;;;;;;;2.66;84.11;100539.66;5105658;28;20023;-85
2022/12/09 06:04:03;;;;;;;51.00;25.23;;;;;;;2.58;83.95;100536.28;5079587;28;20016;-85
2022/12/09 06:06:29;;;;;;;53.58;24.33;;;;;;;2.58;83.98;100532.81;5097798;28;20032;-85
2022/12/09 06:08:59;;;;;;;51.22;25.02;;;;;;;2.53;84.29;100531.13;5075271;28;20028;-85
2022/12/09 06:11:26;;;;;;;51.17;24.92;;;;;;;2.52;84.35;100539.84;5103569;28;20038;-85
2022/12/09 06:13:52;;;;;;;50.20;24.77;;;;;;;2.53;84.43;100531.13;5079379;28;20038;-85
2022/12/09 06:16:20;;;;;;;48.92;24.30;;;;;;;2.54;83.86;100540.66;5079033;28;20072;-85
2022/12/09 06:18:46;;;;;;;51.88;25.13;;;;;;;2.53;84.05;100538.09;5094305;28;20124;-84
2022/12/09 06:21:13;;;;;;;52.95;25.75;;;;;;;2.53;84.13;100546.78;5082745;28;20026;-85
2022/12/09 06:23:40;;;;;;;51.38;23.92;;;;;;;2.55;84.33;100536.31;5099751;28;20409;-85
2022/12/09 06:26:06;;;;;;;46.17;24.45;;;;;;;2.52;83.83;100528.53;5103579;28;20105;-85
2022/12/09 06:28:32;;;;;;;51.53;25.73;;;;;;;2.54;83.50;100532.84;5078016;28;20050;-85
2022/12/09 06:30:57;;;;;;;49.30;24.80;;;;;;;2.44;83.71;100533.84;5073682;28;20028;-85
2022/12/09 06:33:23;;;;;;;51.13;24.67;;;;;;;2.41;83.77;100540.81;5099016;28;20510;-85
2022/12/09 06:35:48;;;;;;;45.13;22.63;;;;;;;2.35;84.42;100533.94;5101707;28;20208;-85
2022/12/09 06:38:14;;;;;;;49.28;23.02;;;;;;;2.34;84.47;100544.41;5096537;28;20110;-85
2022/12/09 06:40:40;;;;;;;45.00;22.70;;;;;;;2.32;84.69;100539.19;5091639;28;20055;-84
2022/12/09 06:43:06;;;;;;;49.85;25.67;;;;;;;2.27;84.65;100534.00;5079182;28;20016;-84
2022/12/09 06:45:31;;;;;;;52.30;24.17;;;;;;;2.26;84.81;100537.50;5102038;28;20392;-85
2022/12/09 06:47:56;;;;;;;57.45;25.75;;;;;;;2.32;84.74;100548.75;5080500;28;20051;-84
2022/12/09 06:50:22;;;;;;;50.60;24.92;;;;;;;2.28;85.01;100537.47;5092265;28;20044;-85
2022/12/09 06:52:47;;;;;;;56.42;27.00;;;;;;;2.28;84.84;100540.97;5087796;28;20046;-85
2022/12/09 06:55:12;;;;;;;51.35;25.45;;;;;;;2.33;84.71;100540.91;5106527;28;20051;-85
2022/12/09 06:57:38;;;;;;;55.65;26.98;;;;;;;2.30;84.93;100544.44;5093960;28;20028;-85
2022/12/09 07:00:04;;;;;;;58.85;26.42;;;;;;;2.28;84.92;100543.59;5083443;28;20024;-85
2022/12/09 07:02:29;;;;;;;56.70;26.42;;;;;;;2.22;84.94;100534.94;5077149;28;20015;-85
2022/12/09 07:04:55;;;;;;;53.50;26.38;;;;;;;2.63;83.59;100544.91;5104808;28;20421;-85
2022/12/09 07:07:21;;;;;;;56.33;27.13;;;;;;;2.59;83.70;100542.34;5102245;28;20073;-85
2022/12/09 07:09:46;;;;;;;56.13;26.98;;;;;;;2.57;83.57;100544.13;5093958;28;20629;-85
2022/12/09 07:12:12;;;;;;;59.65;25.73;;;;;;;2.55;83.57;100551.97;5074615;28;20028;-85
2022/12/09 07:14:37;;;;;;;54.15;26.73;;;;;;;2.46;83.16;100536.41;5095469;28;20138;-85
2022/12/09 07:17:03;;;;;;;52.47;26.90;;;;;;;2.53;83.68;100548.53;5073172;28;20545;-84
2022/12/09 07:19:28;;;;;;;60.70;26.83;;;;;;;2.50;83.45;100553.75;5072766;28;20479;-85
2022/12/09 07:21:54;;;;;;;54.03;25.42;;;;;;;2.53;83.43;100552.00;5077589;28;20077;-85
2022/12/09 07:24:19;;;;;;;54.50;25.45;;;;;;;2.53;82.90;100548.53;5102252;28;20104;-85
2022/12/09 07:26:45;;;;;;;50.95;25.65;;;;;;;2.84;81.26;100546.38;5078908;28;20398;-85
2022/12/09 07:29:10;;;;;;;56.05;25.70;;;;;;;2.27;82.96;100556.63;5087007;28;20451;-85
2022/12/09 07:31:36;;;;;;;54.53;25.17;;;;;;;2.21;83.84;100574.97;5080601;28;20062;-84
2022/12/09 07:34:03;;;;;;;62.58;27.50;;;;;;;2.18;84.01;100568.00;5083708;28;20035;-84
2022/12/09 07:36:30;;;;;;;56.65;26.98;;;;;;;2.17;84.37;100568.03;5103621;28;20498;-84
2022/12/09 07:39:15;;;;;;;56.08;25.80;;;;;;;2.17;84.33;100566.28;5092149;28;20038;-84
2022/12/09 07:41:41;;;;;;;54.75;27.05;;;;;;;2.16;84.32;100555.91;5078566;28;20050;-84
2022/12/09 07:44:06;;;;;;;55.65;25.58;;;;;;;2.13;83.92;100566.34;5100938;28;20495;-85
2022/12/09 07:46:32;;;;;;;53.13;25.05;;;;;;;2.14;83.77;100574.13;5097481;28;20034;-85
2022/12/09 07:48:57;;;;;;;55.47;25.50;;;;;;;2.13;84.21;100564.59;5102102;28;20051;-85
2022/12/09 07:51:24;;;;;;;56.05;25.80;;;;;;;2.14;83.69;100586.31;5096934;28;20038;-84
2022/12/09 07:53:50;;;;;;;51.72;25.35;;;;;;;2.17;83.89;100573.25;5108622;28;20072;-84
2022/12/09 07:56:16;;;;;;;52.78;24.60;;;;;;;2.04;84.04;100583.81;5084727;28;20101;-85
2022/12/09 07:58:43;;;;;;;53.63;25.27;;;;;;;2.05;84.49;100584.66;5095900;28;20425;-85
2022/12/09 08:01:11;;;;;;;56.53;24.83;;;;;;;2.09;84.49;100588.09;5076065;28;20059;-85
2022/12/09 08:03:38;;;;;;;56.40;26.02;;;;;;;2.11;84.25;100581.16;5074533;28;20034;-85
2022/12/09 08:06:04;;;;;;;59.03;26.85;;;;;;;2.12;84.02;100570.69;5104387;28;20116;-84
2022/12/09 08:08:30;;;;;;;52.92;26.30;;;;;;;2.11;84.03;100573.34;5100596;28;20107;-84
2022/12/09 08:10:55;;;;;;;58.33;26.80;;;;;;;2.12;84.25;100577.66;5071172;28;20028;-85
2022/12/09 08:13:21;;;;;;;54.63;26.15;;;;;;;2.05;84.26;100569.00;5080337;28;20511;-85
2022/12/09 08:15:46;;;;;;;63.65;26.20;;;;;;;2.09;84.17;100577.69;5092983;28;20028;-85
2022/12/09 08:18:12;;;;;;;56.80;26.27;;;;;;;2.12;84.31;100577.66;5101464;28;20359;-84
2022/12/09 08:20:38;;;;;;;56.17;25.55;;;;;;;2.07;84.22;100569.03;5097626;28;20463;-85
2022/12/09 08:23:04;;;;;;;60.80;26.30;;;;;;;2.10;84.19;100576.78;5100589;28;20119;-84
2022/12/09 08:25:29;;;;;;;56.70;25.83;;;;;;;2.10;83.84;100569.88;5082484;28;20050;-85
2022/12/09 08:27:54;;;;;;;54.47;26.45;;;;;;;2.11;83.85;100570.72;5082783;28;20545;-85
2022/12/09 08:30:19;;;;;;;60.05;26.73;;;;;;;2.16;83.96;100575.00;5083036;28;20058;-85
2022/12/09 08:32:45;;;;;;;55.20;25.85;;;;;;;2.22;84.10;100581.91;5101562;28;20514;-85
2022/12/09 08:35:13;;;;;;;57.28;25.63;;;;;;;2.20;84.05;100588.88;5082661;28;20372;-85
2022/12/09 08:37:42;;;;;;;57.88;27.00;;;;;;;2.21;84.19;100591.47;5077882;28;20035;-85
2022/12/09 08:40:09;;;;;;;58.70;25.20;;;;;;;2.21;84.47;100578.44;5080598;28;20062;-85
2022/12/09 08:42:34;;;;;;;61.53;28.65;;;;;;;2.31;84.10;100584.41;5080202;28;20266;-85
2022/12/09 08:44:59;;;;;;;59.45;27.13;;;;;;;2.33;83.73;100576.56;5094076;28;20059;-85
2022/12/09 08:47:26;;;;;;;57.55;26.38;;;;;;;2.30;83.97;100565.28;5080761;28;20039;-85
2022/12/09 08:49:51;;;;;;;51.55;27.02;;;;;;;2.42;83.94;100573.84;5092487;28;20441;-85
2022/12/09 08:52:17;;;;;;;53.97;25.58;;;;;;;2.47;83.80;100572.06;5074860;28;20024;-86
2022/12/09 08:54:42;;;;;;;61.55;28.55;;;;;;;2.50;83.57;100575.50;5077789;28;20031;-85
2022/12/09 08:57:07;;;;;;;57.85;26.33;;;;;;;2.42;83.57;100564.28;5094888;28;20157;-85
2022/12/09 08:59:32;;;;;;;59.92;27.63;;;;;;;2.43;83.53;100570.38;5094639;28;20494;-85
2022/12/09 09:01:58;;;;;;;56.50;26.08;;;;;;;2.43;83.57;100566.03;5092529;28;20057;-85
2022/12/09 09:04:23;;;;;;;61.53;28.67;;;;;;;2.96;83.37;100569.72;5087281;28;20023;-85
2022/12/09 09:06:49;;;;;;;63.00;28.83;;;;;;;3.32;83.20;100573.56;5107064;28;20080;-85
2022/12/09 09:09:15;;;;;;;64.68;27.92;;;;;;;3.65;81.29;100578.28;5078190;28;20030;-85
2022/12/09 09:11:41;;;;;;;59.05;27.35;;;;;;;3.50;80.83;100577.66;5079625;28;20055;-85
2022/12/09 09:14:09;;;;;;;58.70;28.30;;;;;;;3.46;81.81;100583.81;5097482;28;20028;-86
2022/12/09 09:16:37;;;;;;;63.67;28.15;;;;;;;3.32;81.28;100575.31;5100890;28;20028;-85
2022/12/09 09:19:04;;;;;;;54.55;26.33;;;;;;;3.34;81.25;100589.22;5080261;28;20023;-85
2022/12/09 09:21:30;;;;;;;56.70;26.85;;;;;;;3.32;81.07;100596.22;5077756;28;20039;-85
2022/12/09 09:23:55;;;;;;;61.10;27.33;;;;;;;3.16;81.03;100585.09;5090106;28;20464;-85
2022/12/09 09:26:24;;;;;;;54.92;25.60;;;;;;;3.15;80.88;100590.34;5074328;28;20911;-85
2022/12/09 09:28:50;;;;;;;57.60;26.30;;;;;;;3.14;80.30;100593.88;5083615;28;20114;-85
2022/12/09 09:31:19;;;;;;;58.58;25.23;;;;;;;3.22;80.76;100598.09;5073593;28;20110;-85
2022/12/09 09:33:44;;;;;;;54.40;26.05;;;;;;;3.26;80.62;100586.72;5096272;28;20459;-85
2022/12/09 09:36:19;;;;;;;53.83;26.10;;;;;;;3.62;80.54;100594.88;5081738;28;20035;-85
2022/12/09 09:38:45;;;;;;;51.17;24.58;;;;;;;4.30;79.27;100595.47;5100598;28;20042;-85
2022/12/09 09:41:29;;;;;;;62.22;26.95;;;;;;;5.12;78.33;100599.94;5095980;28;20535;-85
2022/12/09 09:43:55;;;;;;;51.78;24.80;;;;;;;5.66;75.08;100596.97;5081570;28;20055;-85
2022/12/09 09:46:39;;;;;;;50.53;26.23;;;;;;;6.77;73.26;100587.97;5094670;28;20471;-85
2022/12/09 09:49:10;;;;;;;44.55;24.20;;;;;;;8.72;67.22;100593.06;5096534;28;20114;-85
2022/12/09 09:51:36;;;;;;;46.20;22.02;;;;;;;10.46;61.43;100582.56;5090551;28;20115;-86
2022/12/09 09:54:02;;;;;;;42.35;21.10;;;;;;;11.76;58.22;100589.75;5078178;28;20103;-85
2022/12/09 09:56:29;;;;;;;42.33;22.35;;;;;;;12.80;55.32;100578.28;5083138;28;20031;-86
2022/12/09 09:59:49;;;;;;;38.92;20.67;;;;;;;13.12;58.24;100572.06;5078086;28;20482;-86
2022/12/09 10:02:19;;;;;;;35.10;17.45;;;;;;;11.64;52.80;100580.59;5022168;28;20211;-86
2022/12/09 10:04:47;;;;;;;34.70;18.73;;;;;;;11.71;55.53;100581.19;5039184;28;20052;-86
2022/12/09 10:07:20;;;;;;;32.38;18.13;;;;;;;11.77;55.29;100574.72;5070442;28;20467;-86
2022/12/09 10:10:10;;;;;;;41.28;20.10;;;;;;;11.22;57.74;100580.88;5080171;28;20080;-86
2022/12/09 10:12:53;;;;;;;37.22;21.02;;;;;;;12.38;56.24;100588.41;5085909;28;20384;-86
2022/12/09 10:15:27;;;;;;;36.72;19.90;;;;;;;11.36;55.24;100582.88;5079601;28;20705;-86
2022/12/09 10:18:12;;;;;;;34.33;19.08;;;;;;;10.08;55.90;100585.06;5101131;28;20505;-86
2022/12/09 10:20:39;;;;;;;40.60;20.58;;;;;;;8.99;58.56;100580.59;5092866;28;20039;-86
2022/12/09 10:23:11;;;;;;;36.60;20.42;;;;;;;7.76;63.48;100583.19;5091640;28;20092;-87
2022/12/09 10:25:43;;;;;;;36.85;19.45;;;;;;;7.00;63.93;100578.56;5079894;28;20036;-86
2022/12/09 10:28:08;;;;;;;;;;;;;;;6.64;69.05;100595.31;5099533;28;20389;-85
2022/12/09 10:30:34;;;;;;;41.80;20.63;;;;;;;6.02;67.12;100592.59;5078270;28;20434;-85
2022/12/09 10:32:59;;;;;;;38.90;20.13;;;;;;;5.90;67.72;100579.75;5078746;28;20285;-86
2022/12/09 10:35:27;;;;;;;35.90;19.63;;;;;;;5.90;68.36;100582.38;5096509;28;20011;-86
2022/12/09 10:37:55;;;;;;;33.80;18.45;;;;;;;5.83;66.09;100580.81;5091983;28;20100;-85
2022/12/09 10:40:38;;;;;;;40.25;21.33;;;;;;;5.80;68.68;100589.63;5092177;28;20055;-86
2022/12/09 10:43:37;;;;;;;45.08;20.92;;;;;;;5.97;68.88;100578.75;5097323;28;20048;-86
2022/12/09 10:46:25;;;;;;;43.30;20.63;;;;;;;6.22;68.32;100580.72;5094155;28;20106;-86
2022/12/09 10:48:56;;;;;;;42.22;20.90;;;;;;;7.45;65.10;100568.38;5081797;28;20602;-86
2022/12/09 10:51:25;;;;;;;39.53;19.05;;;;;;;8.52;61.02;100574.44;5100652;28;20019;-86
2022/12/09 10:54:10;;;;;;;34.20;18.83;;;;;;;9.40;60.33;100571.09;5088875;28;20398;-86
2022/12/09 10:56:37;;;;;;;34.05;17.92;;;;;;;9.09;57.83;100576.72;5084731;28;20028;-86
2022/12/09 10:59:10;;;;;;;33.90;18.23;;;;;;;8.24;62.15;100569.25;5092106;28;20507;-86
2022/12/09 11:02:08;;;;;;;37.92;18.55;;;;;;;7.37;63.15;100567.78;5096713;28;20036;-86
2022/12/09 11:04:38;;;;;;;39.95;19.75;;;;;;;6.83;63.90;100558.88;5079707;28;20047;-86
2022/12/09 11:07:15;;;;;;;37.22;19.75;;;;;;;6.60;65.32;100556.03;5074197;28;20573;-86
2022/12/09 11:09:43;;;;;;;39.95;19.42;;;;;;;6.21;66.03;100558.00;5090249;28;20081;-87
2022/12/09 11:12:27;;;;;;;40.78;19.55;;;;;;;5.81;67.92;100564.25;5093434;28;20380;-86
2022/12/09 11:15:01;;;;;;;39.50;18.85;;;;;;;5.46;68.82;100568.59;5092028;28;20503;-86
2022/12/09 11:17:33;;;;;;;41.30;18.40;;;;;;;5.18;69.04;100550.03;5092193;28;20020;-86
2022/12/09 11:20:04;;;;;;;34.28;18.27;;;;;;;5.27;69.08;100564.66;5091862;28;20116;-86
2022/12/09 11:22:38;;;;;;;39.13;18.00;;;;;;;5.27;69.80;100570.78;5085492;28;20036;-86